sensor_id;sensor_type;location;lat;lon;timestamp;P1;durP1;ratioP1;P2;durP2;ratioP2
29662;SDS011;16578;53.266;7.920;2022-08-03T00:01:33;4.10;;;3.72;;
29662;SDS011;16578;53.266;7.920;2022-08-03T00:04:04;5.13;;;4.07;;
29662;SDS011;16578;53.266;7.920;2022-08-03T00:06:29;8.45;;;4.47;;
29662;SDS011;16578;53.266;7.920;2022-08-03T00:08:55;5.10;;;4.35;;
29662;SDS011;16578;53.266;7.920;2022-08-03T00:11:21;4.47;;;3.83;;
29662;SDS011;16578;53.266;7.920;2022-08-03T00:13:47;4.05;;;3.67;;
29662;SDS011;16578;53.266;7.920;2022-08-03T00:16:13;5.88;;;4.28;;
29662;SDS011;16578;53.266;7.920;2022-08-03T00:18:38;4.07;;;3.67;;
29662;SDS011;16578;53.266;7.920;2022-08-03T00:21:04;4.75;;;3.90;;
29662;SDS011;16578;53.266;7.920;2022-08-03T00:23:31;4.13;;;3.78;;
29662;SDS011;16578;53.266;7.920;2022-08-03T00:25:57;4.20;;;3.67;;
29662;SDS011;16578;53.266;7.920;2022-08-03T00:28:22;5.38;;;3.33;;
29662;SDS011;16578;53.266;7.920;2022-08-03T00:30:48;3.97;;;3.58;;
29662;SDS011;16578;53.266;7.920;2022-08-03T00:33:14;4.35;;;3.75;;
29662;SDS011;16578;53.266;7.920;2022-08-03T00:35:40;4.28;;;3.78;;
29662;SDS011;16578;53.266;7.920;2022-08-03T00:38:06;5.28;;;3.83;;
29662;SDS011;16578;53.266;7.920;2022-08-03T00:40:32;3.78;;;3.15;;
29662;SDS011;16578;53.266;7.920;2022-08-03T00:42:58;3.58;;;3.17;;
29662;SDS011;16578;53.266;7.920;2022-08-03T00:47:52;3.65;;;2.97;;
29662;SDS011;16578;53.266;7.920;2022-08-03T00:50:19;3.83;;;3.42;;
29662;SDS011;16578;53.266;7.920;2022-08-03T00:52:50;5.60;;;3.75;;
29662;SDS011;16578;53.266;7.920;2022-08-03T00:55:17;4.68;;;3.80;;
29662;SDS011;16578;53.266;7.920;2022-08-03T00:57:42;5.03;;;3.20;;
29662;SDS011;16578;53.266;7.920;2022-08-03T01:00:09;3.55;;;3.25;;
29662;SDS011;16578;53.266;7.920;2022-08-03T01:02:37;3.90;;;3.38;;
29662;SDS011;16578;53.266;7.920;2022-08-03T01:05:04;4.10;;;3.38;;
29662;SDS011;16578;53.266;7.920;2022-08-03T01:07:41;3.72;;;3.20;;
29662;SDS011;16578;53.266;7.920;2022-08-03T01:13:15;5.85;;;3.40;;
29662;SDS011;16578;53.266;7.920;2022-08-03T01:15:43;4.70;;;3.17;;
29662;SDS011;16578;53.266;7.920;2022-08-03T01:18:27;3.40;;;3.10;;
29662;SDS011;16578;53.266;7.920;2022-08-03T01:21:16;4.72;;;3.70;;
29662;SDS011;16578;53.266;7.920;2022-08-03T01:23:54;4.63;;;3.03;;
29662;SDS011;16578;53.266;7.920;2022-08-03T01:34:54;4.15;;;3.20;;
29662;SDS011;16578;53.266;7.920;2022-08-03T01:37:28;3.63;;;3.25;;
29662;SDS011;16578;53.266;7.920;2022-08-03T01:39:59;3.60;;;3.30;;
29662;SDS011;16578;53.266;7.920;2022-08-03T01:42:27;3.67;;;3.33;;
29662;SDS011;16578;53.266;7.920;2022-08-03T01:44:54;4.00;;;3.25;;
29662;SDS011;16578;53.266;7.920;2022-08-03T01:47:23;3.25;;;2.95;;
29662;SDS011;16578;53.266;7.920;2022-08-03T01:49:50;3.70;;;3.33;;
29662;SDS011;16578;53.266;7.920;2022-08-03T01:52:17;6.10;;;4.00;;
29662;SDS011;16578;53.266;7.920;2022-08-03T01:54:45;4.15;;;3.75;;
29662;SDS011;16578;53.266;7.920;2022-08-03T01:57:14;3.95;;;3.55;;
29662;SDS011;16578;53.266;7.920;2022-08-03T01:59:42;4.95;;;3.65;;
29662;SDS011;16578;53.266;7.920;2022-08-03T02:02:12;4.28;;;3.55;;
29662;SDS011;16578;53.266;7.920;2022-08-03T02:04:40;3.42;;;3.10;;
29662;SDS011;16578;53.266;7.920;2022-08-03T02:07:07;4.75;;;3.85;;
29662;SDS011;16578;53.266;7.920;2022-08-03T02:09:34;5.78;;;3.75;;
29662;SDS011;16578;53.266;7.920;2022-08-03T02:12:08;4.47;;;3.88;;
29662;SDS011;16578;53.266;7.920;2022-08-03T02:14:36;4.18;;;3.58;;
29662;SDS011;16578;53.266;7.920;2022-08-03T02:17:03;3.97;;;3.67;;
29662;SDS011;16578;53.266;7.920;2022-08-03T02:19:33;4.15;;;3.70;;
29662;SDS011;16578;53.266;7.920;2022-08-03T02:22:00;3.80;;;3.50;;
29662;SDS011;16578;53.266;7.920;2022-08-03T02:24:27;5.85;;;3.58;;
29662;SDS011;16578;53.266;7.920;2022-08-03T02:26:54;3.60;;;3.30;;
29662;SDS011;16578;53.266;7.920;2022-08-03T02:29:22;3.42;;;3.13;;
29662;SDS011;16578;53.266;7.920;2022-08-03T02:31:51;3.97;;;3.20;;
29662;SDS011;16578;53.266;7.920;2022-08-03T02:34:18;4.55;;;3.28;;
29662;SDS011;16578;53.266;7.920;2022-08-03T02:36:48;4.80;;;3.97;;
29662;SDS011;16578;53.266;7.920;2022-08-03T02:39:16;6.43;;;3.58;;
29662;SDS011;16578;53.266;7.920;2022-08-03T02:41:49;4.10;;;3.65;;
29662;SDS011;16578;53.266;7.920;2022-08-03T02:44:17;4.68;;;3.83;;
29662;SDS011;16578;53.266;7.920;2022-08-03T02:46:52;6.15;;;3.47;;
29662;SDS011;16578;53.266;7.920;2022-08-03T02:49:20;4.38;;;3.30;;
29662;SDS011;16578;53.266;7.920;2022-08-03T02:51:48;4.10;;;3.80;;
29662;SDS011;16578;53.266;7.920;2022-08-03T02:54:16;3.53;;;3.22;;
29662;SDS011;16578;53.266;7.920;2022-08-03T02:56:44;4.13;;;3.10;;
29662;SDS011;16578;53.266;7.920;2022-08-03T02:59:12;3.85;;;3.47;;
29662;SDS011;16578;53.266;7.920;2022-08-03T03:01:38;4.32;;;3.40;;
29662;SDS011;16578;53.266;7.920;2022-08-03T03:04:04;4.20;;;3.80;;
29662;SDS011;16578;53.266;7.920;2022-08-03T03:06:31;4.72;;;3.80;;
29662;SDS011;16578;53.266;7.920;2022-08-03T03:08:57;3.97;;;3.58;;
29662;SDS011;16578;53.266;7.920;2022-08-03T03:11:24;6.03;;;4.05;;
29662;SDS011;16578;53.266;7.920;2022-08-03T03:13:50;6.40;;;4.65;;
29662;SDS011;16578;53.266;7.920;2022-08-03T03:16:17;7.18;;;4.85;;
29662;SDS011;16578;53.266;7.920;2022-08-03T03:18:44;5.55;;;4.38;;
29662;SDS011;16578;53.266;7.920;2022-08-03T03:21:11;6.90;;;4.53;;
29662;SDS011;16578;53.266;7.920;2022-08-03T03:23:38;4.88;;;4.38;;
29662;SDS011;16578;53.266;7.920;2022-08-03T03:26:05;5.28;;;4.55;;
29662;SDS011;16578;53.266;7.920;2022-08-03T03:28:31;5.78;;;4.72;;
29662;SDS011;16578;53.266;7.920;2022-08-03T03:30:58;4.80;;;4.13;;
29662;SDS011;16578;53.266;7.920;2022-08-03T03:33:24;4.68;;;4.20;;
29662;SDS011;16578;53.266;7.920;2022-08-03T03:35:50;6.00;;;4.40;;
29662;SDS011;16578;53.266;7.920;2022-08-03T03:38:17;4.45;;;4.00;;
29662;SDS011;16578;53.266;7.920;2022-08-03T03:40:43;5.68;;;4.30;;
29662;SDS011;16578;53.266;7.920;2022-08-03T03:43:09;5.22;;;4.75;;
29662;SDS011;16578;53.266;7.920;2022-08-03T03:45:36;6.22;;;4.38;;
29662;SDS011;16578;53.266;7.920;2022-08-03T03:48:04;4.47;;;4.00;;
29662;SDS011;16578;53.266;7.920;2022-08-03T03:50:31;5.35;;;4.47;;
29662;SDS011;16578;53.266;7.920;2022-08-03T03:52:58;4.97;;;4.53;;
29662;SDS011;16578;53.266;7.920;2022-08-03T03:55:23;4.70;;;4.22;;
29662;SDS011;16578;53.266;7.920;2022-08-03T03:57:49;4.47;;;4.07;;
29662;SDS011;16578;53.266;7.920;2022-08-03T04:00:15;4.70;;;4.00;;
29662;SDS011;16578;53.266;7.920;2022-08-03T04:02:42;5.32;;;4.32;;
29662;SDS011;16578;53.266;7.920;2022-08-03T04:05:08;4.60;;;4.20;;
29662;SDS011;16578;53.266;7.920;2022-08-03T04:07:55;6.15;;;4.05;;
29662;SDS011;16578;53.266;7.920;2022-08-03T04:10:42;4.30;;;3.90;;
29662;SDS011;16578;53.266;7.920;2022-08-03T04:13:26;4.43;;;3.47;;
29662;SDS011;16578;53.266;7.920;2022-08-03T04:16:14;4.00;;;3.60;;
29662;SDS011;16578;53.266;7.920;2022-08-03T04:18:42;4.43;;;3.97;;
29662;SDS011;16578;53.266;7.920;2022-08-03T04:21:12;5.82;;;4.15;;
29662;SDS011;16578;53.266;7.920;2022-08-03T04:23:43;6.47;;;4.30;;
29662;SDS011;16578;53.266;7.920;2022-08-03T04:26:12;6.43;;;4.20;;
29662;SDS011;16578;53.266;7.920;2022-08-03T04:28:41;4.72;;;3.88;;
29662;SDS011;16578;53.266;7.920;2022-08-03T04:31:10;4.90;;;3.83;;
29662;SDS011;16578;53.266;7.920;2022-08-03T04:33:36;4.60;;;3.58;;
29662;SDS011;16578;53.266;7.920;2022-08-03T04:36:04;5.50;;;4.10;;
29662;SDS011;16578;53.266;7.920;2022-08-03T04:38:37;6.93;;;3.67;;
29662;SDS011;16578;53.266;7.920;2022-08-03T04:41:08;4.00;;;3.30;;
29662;SDS011;16578;53.266;7.920;2022-08-03T04:43:35;4.32;;;3.60;;
29662;SDS011;16578;53.266;7.920;2022-08-03T04:46:03;5.05;;;3.58;;
29662;SDS011;16578;53.266;7.920;2022-08-03T04:48:30;4.13;;;3.60;;
29662;SDS011;16578;53.266;7.920;2022-08-03T04:50:56;6.00;;;3.38;;
29662;SDS011;16578;53.266;7.920;2022-08-03T04:53:22;4.22;;;3.38;;
29662;SDS011;16578;53.266;7.920;2022-08-03T04:55:47;5.53;;;3.63;;
29662;SDS011;16578;53.266;7.920;2022-08-03T04:58:13;4.85;;;3.47;;
29662;SDS011;16578;53.266;7.920;2022-08-03T05:00:39;4.55;;;3.78;;
29662;SDS011;16578;53.266;7.920;2022-08-03T05:03:04;6.38;;;3.47;;
29662;SDS011;16578;53.266;7.920;2022-08-03T05:05:30;5.05;;;3.95;;
29662;SDS011;16578;53.266;7.920;2022-08-03T05:07:55;4.55;;;3.15;;
29662;SDS011;16578;53.266;7.920;2022-08-03T05:10:21;5.78;;;4.15;;
29662;SDS011;16578;53.266;7.920;2022-08-03T05:12:47;3.55;;;3.25;;
29662;SDS011;16578;53.266;7.920;2022-08-03T05:15:13;10.48;;;4.00;;
29662;SDS011;16578;53.266;7.920;2022-08-03T05:17:39;5.03;;;3.58;;
29662;SDS011;16578;53.266;7.920;2022-08-03T05:20:04;5.15;;;4.15;;
29662;SDS011;16578;53.266;7.920;2022-08-03T05:22:30;6.53;;;3.63;;
29662;SDS011;16578;53.266;7.920;2022-08-03T05:24:56;5.43;;;4.20;;
29662;SDS011;16578;53.266;7.920;2022-08-03T05:27:21;5.75;;;3.75;;
29662;SDS011;16578;53.266;7.920;2022-08-03T05:29:48;6.15;;;3.28;;
29662;SDS011;16578;53.266;7.920;2022-08-03T05:32:15;6.28;;;3.67;;
29662;SDS011;16578;53.266;7.920;2022-08-03T05:34:41;5.25;;;3.50;;
29662;SDS011;16578;53.266;7.920;2022-08-03T05:37:07;5.85;;;3.33;;
29662;SDS011;16578;53.266;7.920;2022-08-03T05:39:33;6.32;;;3.05;;
29662;SDS011;16578;53.266;7.920;2022-08-03T05:41:59;6.13;;;3.45;;
29662;SDS011;16578;53.266;7.920;2022-08-03T05:44:24;5.85;;;3.30;;
29662;SDS011;16578;53.266;7.920;2022-08-03T05:46:50;3.40;;;3.10;;
29662;SDS011;16578;53.266;7.920;2022-08-03T05:49:16;5.22;;;3.42;;
29662;SDS011;16578;53.266;7.920;2022-08-03T05:51:43;5.53;;;3.97;;
29662;SDS011;16578;53.266;7.920;2022-08-03T05:54:09;7.75;;;3.25;;
29662;SDS011;16578;53.266;7.920;2022-08-03T05:56:35;6.05;;;3.22;;
29662;SDS011;16578;53.266;7.920;2022-08-03T05:59:00;5.97;;;3.30;;
29662;SDS011;16578;53.266;7.920;2022-08-03T06:01:26;6.43;;;3.00;;
29662;SDS011;16578;53.266;7.920;2022-08-03T06:03:52;5.78;;;3.22;;
29662;SDS011;16578;53.266;7.920;2022-08-03T06:06:17;6.13;;;3.33;;
29662;SDS011;16578;53.266;7.920;2022-08-03T06:08:44;5.97;;;3.05;;
29662;SDS011;16578;53.266;7.920;2022-08-03T06:11:10;6.05;;;2.80;;
29662;SDS011;16578;53.266;7.920;2022-08-03T06:13:36;4.95;;;2.88;;
29662;SDS011;16578;53.266;7.920;2022-08-03T06:16:03;6.75;;;2.72;;
29662;SDS011;16578;53.266;7.920;2022-08-03T06:18:28;8.73;;;2.85;;
29662;SDS011;16578;53.266;7.920;2022-08-03T06:20:55;4.90;;;2.63;;
29662;SDS011;16578;53.266;7.920;2022-08-03T06:23:21;9.90;;;2.95;;
29662;SDS011;16578;53.266;7.920;2022-08-03T06:25:46;4.70;;;2.58;;
29662;SDS011;16578;53.266;7.920;2022-08-03T06:28:12;4.70;;;2.60;;
29662;SDS011;16578;53.266;7.920;2022-08-03T06:30:38;6.75;;;2.72;;
29662;SDS011;16578;53.266;7.920;2022-08-03T06:33:04;8.45;;;2.67;;
29662;SDS011;16578;53.266;7.920;2022-08-03T06:35:30;8.45;;;3.20;;
29662;SDS011;16578;53.266;7.920;2022-08-03T06:37:56;7.47;;;2.67;;
29662;SDS011;16578;53.266;7.920;2022-08-03T06:40:22;7.43;;;2.58;;
29662;SDS011;16578;53.266;7.920;2022-08-03T06:42:56;7.82;;;2.50;;
29662;SDS011;16578;53.266;7.920;2022-08-03T06:45:22;6.25;;;2.60;;
29662;SDS011;16578;53.266;7.920;2022-08-03T06:47:58;8.07;;;2.70;;
29662;SDS011;16578;53.266;7.920;2022-08-03T06:50:25;5.82;;;2.15;;
29662;SDS011;16578;53.266;7.920;2022-08-03T06:52:51;8.13;;;2.40;;
29662;SDS011;16578;53.266;7.920;2022-08-03T06:55:17;6.47;;;2.58;;
29662;SDS011;16578;53.266;7.920;2022-08-03T06:57:42;5.75;;;2.28;;
29662;SDS011;16578;53.266;7.920;2022-08-03T07:00:08;6.45;;;2.67;;
29662;SDS011;16578;53.266;7.920;2022-08-03T07:02:35;6.07;;;2.47;;
29662;SDS011;16578;53.266;7.920;2022-08-03T07:05:01;5.00;;;2.53;;
29662;SDS011;16578;53.266;7.920;2022-08-03T07:07:27;4.43;;;2.15;;
29662;SDS011;16578;53.266;7.920;2022-08-03T07:09:53;4.30;;;2.13;;
29662;SDS011;16578;53.266;7.920;2022-08-03T07:12:19;8.68;;;3.00;;
29662;SDS011;16578;53.266;7.920;2022-08-03T07:14:44;7.80;;;2.70;;
29662;SDS011;16578;53.266;7.920;2022-08-03T07:17:10;6.28;;;2.42;;
29662;SDS011;16578;53.266;7.920;2022-08-03T07:19:35;9.25;;;2.80;;
29662;SDS011;16578;53.266;7.920;2022-08-03T07:22:01;9.20;;;3.03;;
29662;SDS011;16578;53.266;7.920;2022-08-03T07:24:27;9.70;;;2.80;;
29662;SDS011;16578;53.266;7.920;2022-08-03T07:26:53;6.07;;;2.70;;
29662;SDS011;16578;53.266;7.920;2022-08-03T07:29:19;5.97;;;2.40;;
29662;SDS011;16578;53.266;7.920;2022-08-03T07:31:45;8.52;;;2.80;;
29662;SDS011;16578;53.266;7.920;2022-08-03T07:34:10;6.18;;;2.40;;
29662;SDS011;16578;53.266;7.920;2022-08-03T07:36:36;5.45;;;2.50;;
29662;SDS011;16578;53.266;7.920;2022-08-03T07:39:02;7.53;;;2.63;;
29662;SDS011;16578;53.266;7.920;2022-08-03T07:41:28;8.30;;;2.92;;
29662;SDS011;16578;53.266;7.920;2022-08-03T07:43:54;8.38;;;2.97;;
29662;SDS011;16578;53.266;7.920;2022-08-03T07:46:19;11.98;;;2.90;;
29662;SDS011;16578;53.266;7.920;2022-08-03T07:48:45;11.63;;;3.03;;
29662;SDS011;16578;53.266;7.920;2022-08-03T07:51:10;10.68;;;3.33;;
29662;SDS011;16578;53.266;7.920;2022-08-03T07:53:36;8.57;;;3.45;;
29662;SDS011;16578;53.266;7.920;2022-08-03T07:56:02;4.82;;;2.30;;
29662;SDS011;16578;53.266;7.920;2022-08-03T07:58:27;5.63;;;2.85;;
29662;SDS011;16578;53.266;7.920;2022-08-03T08:00:53;7.22;;;2.63;;
29662;SDS011;16578;53.266;7.920;2022-08-03T08:03:18;5.78;;;2.70;;
29662;SDS011;16578;53.266;7.920;2022-08-03T08:05:45;6.22;;;2.55;;
29662;SDS011;16578;53.266;7.920;2022-08-03T08:08:11;10.30;;;3.30;;
29662;SDS011;16578;53.266;7.920;2022-08-03T08:10:37;7.28;;;2.97;;
29662;SDS011;16578;53.266;7.920;2022-08-03T08:13:03;10.80;;;2.90;;
29662;SDS011;16578;53.266;7.920;2022-08-03T08:15:29;8.23;;;2.78;;
29662;SDS011;16578;53.266;7.920;2022-08-03T08:17:56;7.85;;;3.20;;
29662;SDS011;16578;53.266;7.920;2022-08-03T08:20:26;9.10;;;2.92;;
29662;SDS011;16578;53.266;7.920;2022-08-03T08:22:54;6.90;;;2.65;;
29662;SDS011;16578;53.266;7.920;2022-08-03T08:25:23;9.07;;;2.60;;
29662;SDS011;16578;53.266;7.920;2022-08-03T08:27:48;9.52;;;2.70;;
29662;SDS011;16578;53.266;7.920;2022-08-03T08:30:15;6.57;;;2.90;;
29662;SDS011;16578;53.266;7.920;2022-08-03T08:35:09;9.80;;;2.88;;
29662;SDS011;16578;53.266;7.920;2022-08-03T08:37:35;7.10;;;2.40;;
29662;SDS011;16578;53.266;7.920;2022-08-03T08:40:02;8.63;;;2.78;;
29662;SDS011;16578;53.266;7.920;2022-08-03T08:42:29;6.97;;;3.03;;
29662;SDS011;16578;53.266;7.920;2022-08-03T08:44:56;7.18;;;2.97;;
29662;SDS011;16578;53.266;7.920;2022-08-03T08:47:25;8.77;;;2.53;;
29662;SDS011;16578;53.266;7.920;2022-08-03T08:49:54;8.63;;;3.10;;
29662;SDS011;16578;53.266;7.920;2022-08-03T08:52:26;6.85;;;2.42;;
29662;SDS011;16578;53.266;7.920;2022-08-03T08:54:57;4.43;;;2.33;;
29662;SDS011;16578;53.266;7.920;2022-08-03T08:57:38;6.07;;;2.63;;
29662;SDS011;16578;53.266;7.920;2022-08-03T09:00:11;3.95;;;1.85;;
29662;SDS011;16578;53.266;7.920;2022-08-03T09:02:41;9.68;;;2.70;;
29662;SDS011;16578;53.266;7.920;2022-08-03T09:05:11;8.25;;;2.53;;
29662;SDS011;16578;53.266;7.920;2022-08-03T09:07:44;13.05;;;3.17;;
29662;SDS011;16578;53.266;7.920;2022-08-03T09:10:12;8.50;;;2.60;;
29662;SDS011;16578;53.266;7.920;2022-08-03T09:12:41;8.10;;;2.72;;
29662;SDS011;16578;53.266;7.920;2022-08-03T09:17:48;16.30;;;3.15;;
29662;SDS011;16578;53.266;7.920;2022-08-03T09:20:15;11.00;;;3.53;;
29662;SDS011;16578;53.266;7.920;2022-08-03T09:22:51;10.55;;;3.17;;
29662;SDS011;16578;53.266;7.920;2022-08-03T09:25:18;4.68;;;2.70;;
29662;SDS011;16578;53.266;7.920;2022-08-03T09:27:44;33.67;;;4.28;;
29662;SDS011;16578;53.266;7.920;2022-08-03T09:30:14;6.32;;;2.70;;
29662;SDS011;16578;53.266;7.920;2022-08-03T09:32:41;9.27;;;2.88;;
29662;SDS011;16578;53.266;7.920;2022-08-03T09:35:09;7.05;;;2.95;;
29662;SDS011;16578;53.266;7.920;2022-08-03T09:37:35;9.25;;;2.88;;
29662;SDS011;16578;53.266;7.920;2022-08-03T09:40:01;11.95;;;3.10;;
29662;SDS011;16578;53.266;7.920;2022-08-03T09:42:27;7.72;;;2.33;;
29662;SDS011;16578;53.266;7.920;2022-08-03T09:44:53;11.35;;;2.90;;
29662;SDS011;16578;53.266;7.920;2022-08-03T09:50:05;6.82;;;2.75;;
29662;SDS011;16578;53.266;7.920;2022-08-03T09:54:59;7.15;;;2.63;;
29662;SDS011;16578;53.266;7.920;2022-08-03T09:57:26;6.78;;;2.40;;
29662;SDS011;16578;53.266;7.920;2022-08-03T09:59:54;14.40;;;2.47;;
29662;SDS011;16578;53.266;7.920;2022-08-03T10:02:37;11.77;;;2.90;;
29662;SDS011;16578;53.266;7.920;2022-08-03T10:05:08;5.75;;;2.75;;
29662;SDS011;16578;53.266;7.920;2022-08-03T10:07:44;7.93;;;2.65;;
29662;SDS011;16578;53.266;7.920;2022-08-03T10:10:12;9.20;;;3.00;;
29662;SDS011;16578;53.266;7.920;2022-08-03T10:12:39;8.93;;;2.88;;
29662;SDS011;16578;53.266;7.920;2022-08-03T10:15:06;9.73;;;2.95;;
29662;SDS011;16578;53.266;7.920;2022-08-03T10:17:33;6.90;;;2.58;;
29662;SDS011;16578;53.266;7.920;2022-08-03T10:19:58;12.48;;;3.22;;
29662;SDS011;16578;53.266;7.920;2022-08-03T10:22:28;7.03;;;2.63;;
29662;SDS011;16578;53.266;7.920;2022-08-03T10:24:59;6.93;;;2.83;;
29662;SDS011;16578;53.266;7.920;2022-08-03T10:27:31;11.32;;;2.70;;
29662;SDS011;16578;53.266;7.920;2022-08-03T10:30:10;9.23;;;2.78;;
29662;SDS011;16578;53.266;7.920;2022-08-03T10:32:40;10.32;;;2.92;;
29662;SDS011;16578;53.266;7.920;2022-08-03T10:35:07;10.75;;;3.00;;
29662;SDS011;16578;53.266;7.920;2022-08-03T10:37:40;7.40;;;2.40;;
29662;SDS011;16578;53.266;7.920;2022-08-03T10:40:14;14.05;;;2.83;;
29662;SDS011;16578;53.266;7.920;2022-08-03T10:42:44;9.45;;;2.92;;
29662;SDS011;16578;53.266;7.920;2022-08-03T10:45:17;7.47;;;2.85;;
29662;SDS011;16578;53.266;7.920;2022-08-03T10:47:44;8.85;;;2.63;;
29662;SDS011;16578;53.266;7.920;2022-08-03T10:50:14;12.63;;;3.90;;
29662;SDS011;16578;53.266;7.920;2022-08-03T10:55:37;13.68;;;3.15;;
29662;SDS011;16578;53.266;7.920;2022-08-03T11:01:01;7.53;;;3.10;;
29662;SDS011;16578;53.266;7.920;2022-08-03T11:04:13;8.90;;;3.22;;
29662;SDS011;16578;53.266;7.920;2022-08-03T11:06:23;10.38;;;3.38;;
29662;SDS011;16578;53.266;7.920;2022-08-03T11:11:34;5.80;;;2.42;;
29662;SDS011;16578;53.266;7.920;2022-08-03T11:18:57;8.27;;;2.78;;
29662;SDS011;16578;53.266;7.920;2022-08-03T11:35:12;10.13;;;2.95;;
29662;SDS011;16578;53.266;7.920;2022-08-03T11:46:05;11.65;;;3.03;;
29662;SDS011;16578;53.266;7.920;2022-08-03T11:50:58;9.48;;;2.22;;
29662;SDS011;16578;53.266;7.920;2022-08-03T11:53:24;7.30;;;2.40;;
29662;SDS011;16578;53.266;7.920;2022-08-03T11:55:50;10.23;;;2.72;;
29662;SDS011;16578;53.266;7.920;2022-08-03T11:58:21;9.73;;;2.60;;
29662;SDS011;16578;53.266;7.920;2022-08-03T12:00:47;12.77;;;2.75;;
29662;SDS011;16578;53.266;7.920;2022-08-03T12:03:15;12.65;;;3.30;;
29662;SDS011;16578;53.266;7.920;2022-08-03T12:05:49;8.70;;;2.95;;
29662;SDS011;16578;53.266;7.920;2022-08-03T12:08:17;6.90;;;2.50;;
29662;SDS011;16578;53.266;7.920;2022-08-03T12:10:52;9.45;;;3.42;;
29662;SDS011;16578;53.266;7.920;2022-08-03T12:13:20;9.68;;;3.20;;
29662;SDS011;16578;53.266;7.920;2022-08-03T12:15:51;8.95;;;2.72;;
29662;SDS011;16578;53.266;7.920;2022-08-03T12:18:21;14.65;;;3.17;;
29662;SDS011;16578;53.266;7.920;2022-08-03T12:20:48;10.25;;;3.03;;
29662;SDS011;16578;53.266;7.920;2022-08-03T12:23:15;8.70;;;2.90;;
29662;SDS011;16578;53.266;7.920;2022-08-03T12:25:42;11.63;;;3.25;;
29662;SDS011;16578;53.266;7.920;2022-08-03T12:28:10;18.38;;;3.50;;
29662;SDS011;16578;53.266;7.920;2022-08-03T12:30:47;10.15;;;3.13;;
29662;SDS011;16578;53.266;7.920;2022-08-03T12:33:24;10.75;;;3.47;;
29662;SDS011;16578;53.266;7.920;2022-08-03T12:36:02;14.45;;;3.45;;
29662;SDS011;16578;53.266;7.920;2022-08-03T12:38:28;15.20;;;3.65;;
29662;SDS011;16578;53.266;7.920;2022-08-03T12:41:06;14.25;;;3.10;;
29662;SDS011;16578;53.266;7.920;2022-08-03T12:43:37;10.55;;;3.25;;
29662;SDS011;16578;53.266;7.920;2022-08-03T12:46:12;10.55;;;2.95;;
29662;SDS011;16578;53.266;7.920;2022-08-03T12:51:28;6.55;;;2.70;;
29662;SDS011;16578;53.266;7.920;2022-08-03T12:53:55;7.93;;;2.80;;
29662;SDS011;16578;53.266;7.920;2022-08-03T12:56:22;11.63;;;3.10;;
29662;SDS011;16578;53.266;7.920;2022-08-03T12:58:48;10.30;;;3.28;;
29662;SDS011;16578;53.266;7.920;2022-08-03T13:01:15;9.55;;;2.88;;
29662;SDS011;16578;53.266;7.920;2022-08-03T13:03:42;9.02;;;2.90;;
29662;SDS011;16578;53.266;7.920;2022-08-03T13:06:13;10.43;;;3.03;;
29662;SDS011;16578;53.266;7.920;2022-08-03T13:08:39;10.70;;;3.08;;
29662;SDS011;16578;53.266;7.920;2022-08-03T13:11:19;10.18;;;2.65;;
29662;SDS011;16578;53.266;7.920;2022-08-03T13:13:49;14.45;;;2.95;;
29662;SDS011;16578;53.266;7.920;2022-08-03T13:16:16;10.45;;;2.88;;
29662;SDS011;16578;53.266;7.920;2022-08-03T13:18:42;10.73;;;2.78;;
29662;SDS011;16578;53.266;7.920;2022-08-03T13:23:36;7.10;;;2.15;;
29662;SDS011;16578;53.266;7.920;2022-08-03T13:26:02;12.20;;;2.25;;
29662;SDS011;16578;53.266;7.920;2022-08-03T13:28:27;8.80;;;2.45;;
29662;SDS011;16578;53.266;7.920;2022-08-03T13:30:53;5.88;;;2.38;;
29662;SDS011;16578;53.266;7.920;2022-08-03T13:33:18;7.07;;;2.75;;
29662;SDS011;16578;53.266;7.920;2022-08-03T13:35:44;12.95;;;2.83;;
29662;SDS011;16578;53.266;7.920;2022-08-03T13:38:10;8.32;;;2.78;;
29662;SDS011;16578;53.266;7.920;2022-08-03T13:40:35;5.88;;;2.38;;
29662;SDS011;16578;53.266;7.920;2022-08-03T13:43:02;12.45;;;2.47;;
29662;SDS011;16578;53.266;7.920;2022-08-03T13:45:27;12.38;;;2.83;;
29662;SDS011;16578;53.266;7.920;2022-08-03T13:47:53;8.18;;;2.90;;
29662;SDS011;16578;53.266;7.920;2022-08-03T13:50:19;7.88;;;2.20;;
29662;SDS011;16578;53.266;7.920;2022-08-03T13:52:44;13.18;;;2.42;;
29662;SDS011;16578;53.266;7.920;2022-08-03T13:55:10;9.60;;;2.90;;
29662;SDS011;16578;53.266;7.920;2022-08-03T13:57:36;15.98;;;2.80;;
29662;SDS011;16578;53.266;7.920;2022-08-03T14:00:03;9.23;;;2.85;;
29662;SDS011;16578;53.266;7.920;2022-08-03T14:02:30;8.68;;;2.63;;
29662;SDS011;16578;53.266;7.920;2022-08-03T14:04:55;9.80;;;2.90;;
29662;SDS011;16578;53.266;7.920;2022-08-03T14:07:21;7.22;;;2.33;;
29662;SDS011;16578;53.266;7.920;2022-08-03T14:09:46;9.70;;;2.28;;
29662;SDS011;16578;53.266;7.920;2022-08-03T14:12:12;9.52;;;2.30;;
29662;SDS011;16578;53.266;7.920;2022-08-03T14:14:38;7.90;;;2.70;;
29662;SDS011;16578;53.266;7.920;2022-08-03T14:17:03;10.73;;;2.47;;
29662;SDS011;16578;53.266;7.920;2022-08-03T14:19:29;8.57;;;2.33;;
29662;SDS011;16578;53.266;7.920;2022-08-03T14:21:55;6.05;;;1.92;;
29662;SDS011;16578;53.266;7.920;2022-08-03T14:24:21;6.00;;;2.53;;
29662;SDS011;16578;53.266;7.920;2022-08-03T14:26:47;8.73;;;2.38;;
29662;SDS011;16578;53.266;7.920;2022-08-03T14:29:12;8.32;;;1.77;;
29662;SDS011;16578;53.266;7.920;2022-08-03T14:31:38;5.57;;;2.05;;
29662;SDS011;16578;53.266;7.920;2022-08-03T14:34:03;9.82;;;2.22;;
29662;SDS011;16578;53.266;7.920;2022-08-03T14:36:29;8.75;;;2.30;;
29662;SDS011;16578;53.266;7.920;2022-08-03T14:38:54;4.93;;;2.17;;
29662;SDS011;16578;53.266;7.920;2022-08-03T14:41:20;8.23;;;2.30;;
29662;SDS011;16578;53.266;7.920;2022-08-03T14:43:46;9.65;;;2.15;;
29662;SDS011;16578;53.266;7.920;2022-08-03T14:46:12;4.72;;;1.90;;
29662;SDS011;16578;53.266;7.920;2022-08-03T14:48:37;6.07;;;1.88;;
29662;SDS011;16578;53.266;7.920;2022-08-03T14:51:03;8.77;;;2.05;;
29662;SDS011;16578;53.266;7.920;2022-08-03T14:53:29;7.55;;;2.20;;
29662;SDS011;16578;53.266;7.920;2022-08-03T14:55:55;5.55;;;1.60;;
29662;SDS011;16578;53.266;7.920;2022-08-03T14:58:21;6.20;;;1.88;;
29662;SDS011;16578;53.266;7.920;2022-08-03T15:03:15;5.28;;;1.40;;
29662;SDS011;16578;53.266;7.920;2022-08-03T15:05:44;6.50;;;1.83;;
29662;SDS011;16578;53.266;7.920;2022-08-03T15:08:09;7.50;;;1.92;;
29662;SDS011;16578;53.266;7.920;2022-08-03T15:10:35;6.22;;;2.17;;
29662;SDS011;16578;53.266;7.920;2022-08-03T15:13:01;7.18;;;2.42;;
29662;SDS011;16578;53.266;7.920;2022-08-03T15:15:27;7.88;;;2.25;;
29662;SDS011;16578;53.266;7.920;2022-08-03T15:17:52;7.88;;;1.77;;
29662;SDS011;16578;53.266;7.920;2022-08-03T15:20:18;5.75;;;1.75;;
29662;SDS011;16578;53.266;7.920;2022-08-03T15:22:43;6.68;;;2.15;;
29662;SDS011;16578;53.266;7.920;2022-08-03T15:25:09;12.00;;;2.33;;
29662;SDS011;16578;53.266;7.920;2022-08-03T15:27:35;7.75;;;2.58;;
29662;SDS011;16578;53.266;7.920;2022-08-03T15:30:01;7.25;;;1.75;;
29662;SDS011;16578;53.266;7.920;2022-08-03T15:32:30;5.57;;;1.90;;
29662;SDS011;16578;53.266;7.920;2022-08-03T15:34:57;8.75;;;2.17;;
29662;SDS011;16578;53.266;7.920;2022-08-03T15:37:23;8.85;;;2.38;;
29662;SDS011;16578;53.266;7.920;2022-08-03T15:39:49;6.60;;;1.90;;
29662;SDS011;16578;53.266;7.920;2022-08-03T15:42:15;6.88;;;2.42;;
29662;SDS011;16578;53.266;7.920;2022-08-03T15:44:40;6.28;;;2.05;;
29662;SDS011;16578;53.266;7.920;2022-08-03T15:47:06;10.85;;;2.35;;
29662;SDS011;16578;53.266;7.920;2022-08-03T15:49:31;8.70;;;2.15;;
29662;SDS011;16578;53.266;7.920;2022-08-03T15:51:57;8.38;;;2.20;;
29662;SDS011;16578;53.266;7.920;2022-08-03T15:54:23;7.10;;;2.10;;
29662;SDS011;16578;53.266;7.920;2022-08-03T15:56:48;9.60;;;2.80;;
29662;SDS011;16578;53.266;7.920;2022-08-03T15:59:14;8.43;;;2.10;;